createdAt,value
2018-12-17T00:00:17.912Z,99701.61
2018-12-17T00:00:49.012Z,99699.03
2018-12-17T00:01:20.149Z,99695.61
2018-12-17T00:01:51.294Z,99693.89
2018-12-17T00:02:22.394Z,99690.87
2018-12-17T00:02:53.502Z,99698.57
2018-12-17T00:03:24.607Z,99698.57
2018-12-17T00:03:55.723Z,99700.72
2018-12-17T00:04:26.815Z,99694.73
2018-12-17T00:04:57.916Z,99683.55
2018-12-17T00:05:30.555Z,99692.14
2018-12-17T00:06:01.840Z,99687.90
2018-12-17T00:06:32.954Z,99685.77
2018-12-17T00:07:04.104Z,99683.66
2018-12-17T00:07:35.205Z,99685.34
2018-12-17T00:08:06.308Z,99678.91
2018-12-17T00:08:37.412Z,99687.45
2018-12-17T00:09:08.505Z,99684.44
2018-12-17T00:09:39.599Z,99683.55
2018-12-17T00:10:10.702Z,99691.72
2018-12-17T00:10:41.809Z,99696.41
2018-12-17T00:11:12.908Z,99690.87
2018-12-17T00:11:44.010Z,99693.88
2018-12-17T00:12:16.652Z,99695.56
2018-12-17T00:12:47.992Z,99695.96
2018-12-17T00:13:19.099Z,99692.09
2018-12-17T00:13:50.200Z,99695.11
2018-12-17T00:14:21.296Z,99696.36
2018-12-17T00:14:52.442Z,99693.38
2018-12-17T00:15:23.541Z,99695.11
2018-12-17T00:15:54.655Z,99698.52
2018-12-17T00:16:25.769Z,99700.65
2018-12-17T00:16:56.878Z,99700.70
2018-12-17T00:17:27.985Z,99694.67
2018-12-17T00:17:59.089Z,99701.98
2018-12-17T00:18:30.193Z,99701.09
2018-12-17T00:19:01.298Z,99704.95
2018-12-17T00:19:32.399Z,99699.86
2018-12-17T00:20:03.537Z,99705.01
2018-12-17T00:20:34.633Z,99702.88
2018-12-17T00:21:05.731Z,99700.72
2018-12-17T00:21:36.861Z,99699.02
2018-12-17T00:22:07.957Z,99697.29
2018-12-17T00:22:39.055Z,99700.25
2018-12-17T00:23:10.152Z,99700.25
2018-12-17T00:23:41.256Z,99694.72
2018-12-17T00:24:12.362Z,99693.48
2018-12-17T00:24:43.466Z,99693.45
2018-12-17T00:25:14.568Z,99692.16
2018-12-17T00:25:45.674Z,99688.34
2018-12-17T00:26:16.808Z,99685.78
2018-12-17T00:26:47.951Z,99686.18
2018-12-17T00:27:19.050Z,99691.41
2018-12-17T00:27:50.169Z,99683.70
2018-12-17T00:28:21.277Z,99660.86
2018-12-17T00:28:52.378Z,99686.71
2018-12-17T00:29:23.473Z,99687.95
2018-12-17T00:29:54.628Z,99686.23
2018-12-17T00:30:25.731Z,99691.41
2018-12-17T00:30:56.840Z,99691.86
2018-12-17T00:31:27.944Z,99692.27
2018-12-17T00:31:59.052Z,99691.42
2018-12-17T00:32:30.169Z,99691.91
2018-12-17T00:33:01.330Z,99690.18
2018-12-17T00:33:32.470Z,99690.97
2018-12-17T00:34:03.562Z,99686.23
2018-12-17T00:34:35.785Z,99690.53
2018-12-17T00:35:06.896Z,99692.25
2018-12-17T00:35:38.012Z,99693.98
2018-12-17T00:36:09.120Z,99684.10
2018-12-17T00:36:40.220Z,99683.71
2018-12-17T00:37:11.325Z,99689.34
2018-12-17T00:37:42.439Z,99686.33
2018-12-17T00:38:13.548Z,99682.03
2018-12-17T00:38:44.655Z,99685.88
2018-12-17T00:39:15.769Z,99679.89
2018-12-17T00:39:46.918Z,99682.87
2018-12-17T00:40:18.020Z,99682.02
2018-12-17T00:40:49.139Z,99681.13
2018-12-17T00:41:20.258Z,99685.84
2018-12-17T00:41:51.398Z,99689.34
2018-12-17T00:42:22.500Z,99685.53
2018-12-17T00:42:53.596Z,99681.67
2018-12-17T00:43:24.731Z,99684.25
2018-12-17T00:43:55.864Z,99682.08
2018-12-17T00:44:27.122Z,99679.91
2018-12-17T00:44:58.491Z,99683.75
2018-12-17T00:45:29.601Z,99677.28
2018-12-17T00:46:00.768Z,99678.56
2018-12-17T00:46:31.894Z,99679.01
2018-12-17T00:47:03.025Z,99675.16
2018-12-17T00:47:34.142Z,99673.86
2018-12-17T00:48:05.381Z,99675.99
2018-12-17T00:48:36.484Z,99676.88
2018-12-17T00:49:07.651Z,99682.91
2018-12-17T00:49:38.763Z,99682.03
2018-12-17T00:50:09.882Z,99679.45
2018-12-17T00:50:41.024Z,99659.23
2018-12-17T00:51:12.129Z,99682.91
2018-12-17T00:51:43.232Z,99681.63
2018-12-17T00:52:14.332Z,99683.36
2018-12-17T00:52:45.443Z,99679.50
2018-12-17T00:53:16.541Z,99683.80
2018-12-17T00:53:47.645Z,99686.38
2018-12-17T00:54:18.747Z,99679.55
2018-12-17T00:54:49.849Z,99678.70
2018-12-17T00:55:20.958Z,99682.95
2018-12-17T00:55:52.126Z,99685.48
2018-12-17T00:56:23.229Z,99684.23
2018-12-17T00:56:54.323Z,99685.09
2018-12-17T00:57:25.433Z,99682.96
2018-12-17T00:57:56.540Z,99683.84
2018-12-17T00:58:27.640Z,99688.98
2018-12-17T00:58:58.731Z,99686.81
2018-12-17T00:59:29.835Z,99684.28
2018-12-17T01:00:00.961Z,99682.97
2018-12-17T01:00:32.070Z,99685.53
2018-12-17T01:01:03.200Z,99688.55
2018-12-17T01:01:34.296Z,99687.25
2018-12-17T01:02:05.404Z,99682.07
2018-12-17T01:02:36.522Z,99685.48
2018-12-17T01:03:07.635Z,99687.22
2018-12-17T01:03:38.753Z,99691.96
2018-12-17T01:04:09.884Z,99688.98
2018-12-17T01:04:41.070Z,99688.55
2018-12-17T01:05:12.188Z,99686.42
2018-12-17T01:05:43.328Z,99691.56
2018-12-17T01:06:14.556Z,99689.47
2018-12-17T01:06:45.709Z,99691.16
2018-12-17T01:07:16.836Z,99695.91
2018-12-17T01:07:48.006Z,99692.49
2018-12-17T01:08:19.125Z,99688.67
2018-12-17T01:08:50.305Z,99687.80
2018-12-17T01:09:21.579Z,99692.09
2018-12-17T01:09:52.696Z,99694.22
2018-12-17T01:10:23.804Z,99692.05
2018-12-17T01:10:54.944Z,99686.91
2018-12-17T01:11:26.061Z,99689.88
2018-12-17T01:11:57.186Z,99687.31
2018-12-17T01:12:28.291Z,99687.75
2018-12-17T01:12:59.400Z,99680.44
2018-12-17T01:13:30.505Z,99683.44
2018-12-17T01:14:01.628Z,99684.73
2018-12-17T01:14:32.764Z,99688.23
2018-12-17T01:15:03.898Z,99680.12
2018-12-17T01:15:35.021Z,99682.28
2018-12-17T01:16:06.129Z,99685.26
2018-12-17T01:16:37.226Z,99683.49
2018-12-17T01:17:08.331Z,99680.47
2018-12-17T01:17:39.441Z,99682.16
2018-12-17T01:18:10.549Z,99685.98
2018-12-17T01:18:41.670Z,99681.67
2018-12-17T01:19:12.791Z,99682.96
2018-12-17T01:19:43.938Z,99682.08
2018-12-17T01:20:15.089Z,99688.55
2018-12-17T01:20:46.201Z,99693.73
2018-12-17T01:21:17.324Z,99689.03
2018-12-17T01:21:48.429Z,99688.11
2018-12-17T01:22:19.544Z,99689.83
2018-12-17T01:22:50.641Z,99692.41
2018-12-17T01:23:21.748Z,99677.81
2018-12-17T01:23:53.213Z,99682.95
2018-12-17T01:24:24.354Z,99684.64
2018-12-17T01:24:55.561Z,99680.37
2018-12-17T01:25:26.666Z,99679.98
2018-12-17T01:25:58.590Z,99678.70
2018-12-17T01:26:29.761Z,99681.67
2018-12-17T01:27:01.131Z,99677.86
2018-12-17T01:27:32.275Z,99678.74
2018-12-17T01:28:03.391Z,99676.58
2018-12-17T01:28:34.499Z,99676.17
2018-12-17T01:29:05.634Z,99678.30
2018-12-17T01:29:36.734Z,99671.47
2018-12-17T01:30:07.840Z,99679.63
2018-12-17T01:30:38.936Z,99677.50
2018-12-17T01:31:10.034Z,99675.37
2018-12-17T01:31:41.128Z,99679.67
2018-12-17T01:32:12.271Z,99668.09
2018-12-17T01:32:43.375Z,99675.81
2018-12-17T01:33:14.477Z,99670.19
2018-12-17T01:33:45.589Z,99675.29
2018-12-17T01:34:16.684Z,99673.59
2018-12-17T01:34:47.784Z,99680.47
2018-12-17T01:35:18.892Z,99677.91
2018-12-17T01:35:49.998Z,99676.22
2018-12-17T01:36:21.103Z,99672.80
2018-12-17T01:36:52.205Z,99674.89
2018-12-17T01:37:23.360Z,99677.02
2018-12-17T01:37:54.473Z,99683.45
2018-12-17T01:38:25.571Z,99677.02
2018-12-17T01:38:56.677Z,99678.74
2018-12-17T01:39:27.782Z,99679.14
2018-12-17T01:39:58.885Z,99681.72
2018-12-17T01:40:29.980Z,99678.70
2018-12-17T01:41:01.079Z,99676.53
2018-12-17T01:41:32.185Z,99678.70
2018-12-17T01:42:03.323Z,99676.97
2018-12-17T01:42:34.428Z,99682.11
2018-12-17T01:43:05.594Z,99673.55
2018-12-17T01:43:36.700Z,99676.09
2018-12-17T01:44:07.811Z,99684.20
2018-12-17T01:44:38.923Z,99677.37
2018-12-17T01:45:10.037Z,99680.78
2018-12-17T01:45:41.133Z,99679.54
2018-12-17T01:46:12.278Z,99672.23
2018-12-17T01:46:43.374Z,99673.11
2018-12-17T01:47:14.467Z,99671.79
2018-12-17T01:47:45.609Z,99673.52
2018-12-17T01:48:16.845Z,99674.00
2018-12-17T01:48:47.936Z,99675.33
2018-12-17T01:49:19.042Z,99667.69
2018-12-17T01:49:50.158Z,99670.70
2018-12-17T01:50:21.283Z,99662.17
2018-12-17T01:50:52.393Z,99666.58
2018-12-17T01:51:23.503Z,99667.02
2018-12-17T01:51:54.637Z,99667.39
2018-12-17T01:52:25.746Z,99671.28
2018-12-17T01:52:56.860Z,99662.69
2018-12-17T01:53:27.965Z,99661.80
2018-12-17T01:53:59.072Z,99668.24
2018-12-17T01:54:30.174Z,99665.63
2018-12-17T01:55:01.288Z,99666.00
2018-12-17T01:55:32.434Z,99666.84
2018-12-17T01:56:03.542Z,99664.67
2018-12-17T01:56:34.644Z,99664.64
2018-12-17T01:57:05.788Z,99675.77
2018-12-17T01:57:36.894Z,99671.91
2018-12-17T01:58:08.003Z,99665.92
2018-12-17T01:58:39.139Z,99663.31
2018-12-17T01:59:10.258Z,99670.59
2018-12-17T01:59:41.401Z,99661.14
2018-12-17T02:00:12.513Z,99667.57
2018-12-17T02:00:43.622Z,99666.25
2018-12-17T02:01:14.785Z,99664.55
2018-12-17T02:01:45.885Z,99665.40
2018-12-17T02:02:16.985Z,99661.54
2018-12-17T02:02:48.095Z,99661.53
2018-12-17T02:03:19.204Z,99664.55
2018-12-17T02:03:50.381Z,99653.42
2018-12-17T02:04:21.473Z,99657.24
2018-12-17T02:04:52.576Z,99660.73
2018-12-17T02:05:23.688Z,99656.00
2018-12-17T02:05:54.798Z,99666.77
2018-12-17T02:06:25.952Z,99663.83
2018-12-17T02:06:57.100Z,99663.80
2018-12-17T02:07:28.244Z,99661.26
2018-12-17T02:07:59.349Z,99666.84
2018-12-17T02:08:30.446Z,99659.53
2018-12-17T02:09:01.556Z,99657.33
2018-12-17T02:09:32.659Z,99667.61
2018-12-17T02:10:03.764Z,99669.75
2018-12-17T02:10:34.859Z,99659.45
2018-12-17T02:11:05.974Z,99665.89
2018-12-17T02:11:37.082Z,99660.73
2018-12-17T02:12:08.194Z,99663.31
2018-12-17T02:12:39.328Z,99660.78
2018-12-17T02:13:10.436Z,99654.79
2018-12-17T02:13:41.557Z,99655.67
2018-12-17T02:14:12.663Z,99655.67
2018-12-17T02:14:43.764Z,99656.92
2018-12-17T02:15:16.286Z,99653.06
2018-12-17T02:15:47.597Z,99650.89
2018-12-17T02:16:18.711Z,99661.66
2018-12-17T02:16:50.140Z,99653.50
2018-12-17T02:17:22.345Z,99654.79
2018-12-17T02:17:53.519Z,99652.18
2018-12-17T02:18:24.668Z,99654.83
2018-12-17T02:18:55.771Z,99662.62
2018-12-17T02:19:26.883Z,99654.89
2018-12-17T02:19:58.029Z,99658.76
2018-12-17T02:20:29.133Z,99658.28
2018-12-17T02:21:00.249Z,99653.98
2018-12-17T02:21:31.361Z,99657.84
2018-12-17T02:22:02.466Z,99658.28
2018-12-17T02:22:33.566Z,99652.30
2018-12-17T02:23:04.674Z,99658.72
2018-12-17T02:23:35.776Z,99661.27
2018-12-17T02:24:06.881Z,99654.34
2018-12-17T02:24:38.024Z,99650.01
2018-12-17T02:25:09.129Z,99660.26
2018-12-17T02:25:40.233Z,99647.80
2018-12-17T02:26:11.328Z,99657.23
2018-12-17T02:26:42.429Z,99644.34
2018-12-17T02:27:13.577Z,99651.61
2018-12-17T02:27:44.676Z,99649.52
2018-12-17T02:28:15.796Z,99647.80
2018-12-17T02:28:46.896Z,99652.50
2018-12-17T02:29:18.004Z,99652.94
2018-12-17T02:29:49.107Z,99646.15
2018-12-17T02:30:20.261Z,99645.75
2018-12-17T02:30:51.369Z,99647.55
2018-12-17T02:31:22.495Z,99644.61
2018-12-17T02:31:53.609Z,99649.78
2018-12-17T02:32:24.712Z,99653.20
2018-12-17T02:32:55.816Z,99648.46
2018-12-17T02:33:26.960Z,99645.86
2018-12-17T02:33:58.065Z,99648.39
2018-12-17T02:34:29.170Z,99641.08
2018-12-17T02:35:00.279Z,99646.23
2018-12-17T02:35:31.392Z,99642.80
2018-12-17T02:36:02.496Z,99639.31
2018-12-17T02:36:33.645Z,99642.33
2018-12-17T02:37:04.822Z,99643.58
2018-12-17T02:37:37.113Z,99639.23
2018-12-17T02:38:08.225Z,99632.37
2018-12-17T02:38:39.337Z,99641.81
2018-12-17T02:39:10.447Z,99637.95
2018-12-17T02:39:41.674Z,99637.11
2018-12-17T02:40:12.781Z,99636.67
2018-12-17T02:40:43.880Z,99635.82
2018-12-17T02:41:14.986Z,99634.09
2018-12-17T02:41:46.129Z,99640.56
2018-12-17T02:42:17.267Z,99633.73
2018-12-17T02:42:48.409Z,99630.72
2018-12-17T02:43:19.535Z,99640.16
2018-12-17T02:43:50.652Z,99636.70
2018-12-17T02:44:21.756Z,99635.38
2018-12-17T02:44:52.857Z,99632.41
2018-12-17T02:45:23.976Z,99630.64
2018-12-17T02:45:55.083Z,99640.04
2018-12-17T02:46:26.225Z,99641.77
2018-12-17T02:46:57.325Z,99640.48
2018-12-17T02:47:28.446Z,99637.47
2018-12-17T02:47:59.589Z,99635.30
2018-12-17T02:48:30.701Z,99636.98
2018-12-17T02:49:01.807Z,99637.42
2018-12-17T02:49:32.911Z,99640.44
2018-12-17T02:50:04.010Z,99636.58
2018-12-17T02:50:35.112Z,99634.49
2018-12-17T02:51:06.259Z,99631.92
2018-12-17T02:51:37.374Z,99627.27
2018-12-17T02:52:08.485Z,99632.48
2018-12-17T02:52:40.104Z,99627.34
2018-12-17T02:53:11.212Z,99623.84
2018-12-17T02:53:42.320Z,99629.83
2018-12-17T02:54:13.432Z,99625.53
2018-12-17T02:54:44.546Z,99630.28
2018-12-17T02:55:15.655Z,99623.84
2018-12-17T02:55:46.764Z,99627.34
2018-12-17T02:56:17.931Z,99625.65
2018-12-17T02:56:49.161Z,99623.98
2018-12-17T02:57:20.264Z,99624.05
2018-12-17T02:57:51.428Z,99633.49
2018-12-17T02:58:22.537Z,99638.17
2018-12-17T02:58:53.640Z,99631.23
2018-12-17T02:59:24.744Z,99628.22
2018-12-17T02:59:55.849Z,99627.37
2018-12-17T03:00:26.951Z,99627.84
2018-12-17T03:00:58.072Z,99632.15
2018-12-17T03:01:29.163Z,99630.86
2018-12-17T03:02:00.292Z,99629.58
2018-12-17T03:02:31.421Z,99626.53
2018-12-17T03:03:02.591Z,99634.21
2018-12-17T03:03:33.694Z,99626.05
2018-12-17T03:04:04.809Z,99631.20
2018-12-17T03:04:35.914Z,99629.03
2018-12-17T03:05:07.018Z,99625.57
2018-12-17T03:05:38.125Z,99631.52
2018-12-17T03:06:09.248Z,99632.37
2018-12-17T03:06:40.365Z,99628.91
2018-12-17T03:07:11.514Z,99605.20
2018-12-17T03:07:42.619Z,99627.22
2018-12-17T03:08:13.742Z,99625.94
2018-12-17T03:08:44.850Z,99629.35
2018-12-17T03:09:15.953Z,99634.94
2018-12-17T03:09:47.053Z,99634.89
2018-12-17T03:10:18.173Z,99634.09
2018-12-17T03:10:49.272Z,99627.22
2018-12-17T03:11:20.382Z,99632.81
2018-12-17T03:11:51.532Z,99631.56
2018-12-17T03:12:22.635Z,99624.29
2018-12-17T03:12:53.747Z,99624.32
2018-12-17T03:13:24.899Z,99627.37
2018-12-17T03:13:56.100Z,99625.30
2018-12-17T03:14:27.213Z,99621.00
2018-12-17T03:14:58.311Z,99619.72
2018-12-17T03:15:29.416Z,99624.89
2018-12-17T03:16:00.529Z,99625.77
2018-12-17T03:16:31.623Z,99624.45
2018-12-17T03:17:02.761Z,99621.86
2018-12-17T03:17:33.863Z,99620.94
2018-12-17T03:18:04.972Z,99626.49
2018-12-17T03:18:36.719Z,99624.36
2018-12-17T03:19:07.812Z,99613.70
2018-12-17T03:19:38.918Z,99625.71
2018-12-17T03:20:10.030Z,99621.86
2018-12-17T03:20:41.136Z,99616.27
2018-12-17T03:21:12.282Z,99623.52
2018-12-17T03:21:43.386Z,99620.47
2018-12-17T03:22:14.544Z,99623.48
2018-12-17T03:22:45.649Z,99621.75
2018-12-17T03:23:16.756Z,99621.78
2018-12-17T03:23:47.861Z,99620.94
2018-12-17T03:24:18.962Z,99624.39
2018-12-17T03:24:50.121Z,99629.98
2018-12-17T03:25:21.254Z,99620.94
2018-12-17T03:25:52.377Z,99624.36
2018-12-17T03:26:23.522Z,99614.95
2018-12-17T03:26:54.658Z,99623.58
2018-12-17T03:27:25.783Z,99624.89
2018-12-17T03:27:56.887Z,99620.16
2018-12-17T03:28:27.994Z,99623.55
2018-12-17T03:28:59.157Z,99627.41
2018-12-17T03:29:30.261Z,99623.11
2018-12-17T03:30:01.366Z,99630.83
2018-12-17T03:30:32.474Z,99626.09
2018-12-17T03:31:03.588Z,99624.77
2018-12-17T03:31:34.691Z,99626.89
2018-12-17T03:32:05.786Z,99619.59
2018-12-17T03:32:36.901Z,99630.72
2018-12-17T03:33:07.995Z,99625.98
2018-12-17T03:33:39.113Z,99624.25
2018-12-17T03:34:10.243Z,99631.92
2018-12-17T03:34:41.358Z,99631.52
2018-12-17T03:35:12.463Z,99632.37
2018-12-17T03:35:43.562Z,99628.95
2018-12-17T03:36:14.680Z,99639.64
2018-12-17T03:36:45.784Z,99630.19
2018-12-17T03:37:16.889Z,99633.66
2018-12-17T03:37:48.025Z,99632.84
2018-12-17T03:38:19.160Z,99629.39
2018-12-17T03:38:50.298Z,99639.24
2018-12-17T03:39:21.408Z,99633.66
2018-12-17T03:39:52.516Z,99629.80
2018-12-17T03:40:23.665Z,99627.19
2018-12-17T03:40:54.814Z,99634.49
2018-12-17T03:41:25.988Z,99636.18
2018-12-17T03:41:57.152Z,99634.01
2018-12-17T03:42:28.260Z,99637.42
2018-12-17T03:42:59.365Z,99635.25
2018-12-17T03:43:30.478Z,99638.23
2018-12-17T03:44:01.579Z,99641.68
2018-12-17T03:44:32.689Z,99642.52
2018-12-17T03:45:03.791Z,99641.68
2018-12-17T03:45:34.897Z,99633.97
2018-12-17T03:46:06.008Z,99639.10
2018-12-17T03:46:37.103Z,99642.56
2018-12-17T03:47:08.235Z,99647.22
2018-12-17T03:47:39.372Z,99640.39
2018-12-17T03:48:10.472Z,99644.20
2018-12-17T03:48:41.582Z,99647.62
2018-12-17T03:49:12.681Z,99648.09
2018-12-17T03:49:43.793Z,99647.70
2018-12-17T03:50:14.890Z,99651.56
2018-12-17T03:50:46.047Z,99644.30
2018-12-17T03:51:17.258Z,99652.49
2018-12-17T03:51:48.357Z,99646.91
2018-12-17T03:52:19.502Z,99649.04
2018-12-17T03:52:50.600Z,99650.36
2018-12-17T03:53:21.704Z,99649.97
2018-12-17T03:53:52.811Z,99644.42
2018-12-17T03:54:23.916Z,99648.28
2018-12-17T03:54:55.027Z,99644.42
2018-12-17T03:55:26.130Z,99648.64
2018-12-17T03:55:57.232Z,99650.36
2018-12-17T03:56:28.401Z,99652.09
2018-12-17T03:56:59.607Z,99649.48
2018-12-17T03:57:30.711Z,99656.35
2018-12-17T03:58:01.815Z,99652.05
2018-12-17T03:58:32.928Z,99657.24
2018-12-17T03:59:04.032Z,99656.44
2018-12-17T03:59:35.140Z,99652.14
2018-12-17T04:00:06.250Z,99654.23
2018-12-17T04:00:37.359Z,99658.08
2018-12-17T04:01:08.465Z,99656.80
2018-12-17T04:01:39.604Z,99653.42
2018-12-17T04:02:10.717Z,99658.13
2018-12-17T04:02:41.828Z,99660.22
2018-12-17T04:03:12.937Z,99658.93
2018-12-17T04:03:44.037Z,99661.50
2018-12-17T04:04:15.136Z,99658.04
2018-12-17T04:04:46.236Z,99662.38
2018-12-17T04:05:17.353Z,99651.70
2018-12-17T04:05:48.552Z,99656.44
2018-12-17T04:06:19.658Z,99662.47
2018-12-17T04:06:50.765Z,99668.90
2018-12-17T04:07:21.876Z,99662.42
2018-12-17T04:07:52.977Z,99664.55
2018-12-17T04:08:24.074Z,99660.25
2018-12-17T04:08:55.180Z,99661.94
2018-12-17T04:09:26.281Z,99667.13
2018-12-17T04:09:57.383Z,99671.44
2018-12-17T04:10:28.487Z,99670.63
2018-12-17T04:10:59.628Z,99671.87
2018-12-17T04:11:30.743Z,99667.53
2018-12-17T04:12:01.859Z,99668.41
2018-12-17T04:12:32.966Z,99667.57
2018-12-17T04:13:04.064Z,99664.95
2018-12-17T04:13:35.167Z,99662.83
2018-12-17T04:14:06.312Z,99666.64
2018-12-17T04:14:37.457Z,99667.92
2018-12-17T04:15:08.591Z,99664.51
2018-12-17T04:15:39.692Z,99663.63
2018-12-17T04:16:10.805Z,99673.47
2018-12-17T04:16:41.907Z,99664.95
2018-12-17T04:17:13.013Z,99665.44
2018-12-17T04:17:44.126Z,99671.47
2018-12-17T04:18:15.233Z,99673.60
2018-12-17T04:18:46.345Z,99666.29
2018-12-17T04:19:17.446Z,99670.19
2018-12-17T04:19:48.615Z,99676.62
2018-12-17T04:20:19.709Z,99671.88
2018-12-17T04:20:50.845Z,99665.00
2018-12-17T04:21:21.954Z,99672.75
2018-12-17T04:21:53.110Z,99675.33
2018-12-17T04:22:24.204Z,99664.59
2018-12-17T04:22:55.308Z,99671.03
2018-12-17T04:23:26.419Z,99672.28
2018-12-17T04:23:57.520Z,99675.30
2018-12-17T04:24:28.621Z,99671.44
2018-12-17T04:24:59.735Z,99672.31
2018-12-17T04:25:30.852Z,99665.48
2018-12-17T04:26:01.953Z,99673.28
2018-12-17T04:26:33.060Z,99670.30
2018-12-17T04:27:04.216Z,99677.14
2018-12-17T04:27:35.331Z,99665.13
2018-12-17T04:28:06.450Z,99671.15
2018-12-17T04:28:37.573Z,99669.86
2018-12-17T04:29:08.694Z,99663.84
2018-12-17T04:29:39.802Z,99662.58
2018-12-17T04:30:10.904Z,99662.62
2018-12-17T04:30:42.016Z,99669.09
2018-12-17T04:31:13.136Z,99661.80
2018-12-17T04:31:44.274Z,99666.14
2018-12-17T04:32:15.379Z,99665.26
2018-12-17T04:32:46.524Z,99666.07
2018-12-17T04:33:17.642Z,99667.33
2018-12-17T04:33:48.747Z,99657.91
2018-12-17T04:34:19.859Z,99662.17
2018-12-17T04:34:50.956Z,99666.92
2018-12-17T04:35:22.065Z,99664.31
2018-12-17T04:35:53.213Z,99663.88
2018-12-17T04:36:24.435Z,99665.19
2018-12-17T04:36:55.536Z,99662.17
2018-12-17T04:37:26.640Z,99664.72
2018-12-17T04:37:57.835Z,99668.54
2018-12-17T04:38:28.933Z,99665.97
2018-12-17T04:39:00.038Z,99665.56
2018-12-17T04:39:31.145Z,99666.41
2018-12-17T04:40:02.253Z,99663.39
2018-12-17T04:40:33.664Z,99666.37
2018-12-17T04:41:04.774Z,99665.92
2018-12-17T04:41:35.890Z,99670.23
2018-12-17T04:42:07.032Z,99670.27
2018-12-17T04:42:38.300Z,99660.82
2018-12-17T04:43:09.404Z,99672.84
2018-12-17T04:43:40.506Z,99665.97
2018-12-17T04:44:11.615Z,99669.38
2018-12-17T04:44:43.038Z,99634.13
2018-12-17T04:45:14.177Z,99664.64
2018-12-17T04:45:45.285Z,99668.90
2018-12-17T04:46:16.388Z,99668.53
2018-12-17T04:46:47.523Z,99666.84
2018-12-17T04:47:18.639Z,99674.13
2018-12-17T04:47:49.801Z,99668.94
2018-12-17T04:48:20.903Z,99662.95
2018-12-17T04:48:52.005Z,99665.08
2018-12-17T04:49:23.106Z,99662.95
2018-12-17T04:49:54.216Z,99664.67
2018-12-17T04:50:25.329Z,99661.70
2018-12-17T04:50:56.423Z,99668.58
2018-12-17T04:51:27.529Z,99668.14
2018-12-17T04:51:58.638Z,99659.98
2018-12-17T04:52:29.745Z,99663.42
2018-12-17T04:53:00.889Z,99660.86
2018-12-17T04:53:31.993Z,99665.16
2018-12-17T04:54:03.101Z,99661.73
2018-12-17T04:54:34.233Z,99659.61
2018-12-17T04:55:05.346Z,99659.53
2018-12-17T04:55:36.462Z,99668.06
2018-12-17T04:56:07.570Z,99662.10
2018-12-17T04:56:38.702Z,99660.38
2018-12-17T04:57:09.858Z,99667.25
2018-12-17T04:57:40.973Z,99665.08
2018-12-17T04:58:12.089Z,99661.19
2018-12-17T04:58:43.240Z,99439.26
2018-12-17T04:59:14.971Z,99673.20
2018-12-17T04:59:46.379Z,99667.21
2018-12-17T05:00:17.484Z,99667.25
2018-12-17T05:00:48.588Z,99669.83
2018-12-17T05:01:19.734Z,99669.42
2018-12-17T05:01:50.976Z,99671.11
2018-12-17T05:02:22.089Z,99672.44
2018-12-17T05:02:53.217Z,99667.29
2018-12-17T05:03:24.331Z,99666.88
2018-12-17T05:03:55.478Z,99660.86
2018-12-17T05:04:26.593Z,99665.13
2018-12-17T05:04:57.712Z,99666.41
2018-12-17T05:05:28.818Z,99668.58
2018-12-17T05:05:59.941Z,99666.84
2018-12-17T05:06:31.053Z,99661.66
2018-12-17T05:07:02.174Z,99667.66
2018-12-17T05:07:33.291Z,99662.95
2018-12-17T05:08:04.399Z,99665.96
2018-12-17T05:08:35.536Z,99669.38
2018-12-17T05:09:06.647Z,99670.23
2018-12-17T05:09:37.761Z,99669.42
2018-12-17T05:10:08.869Z,99669.83
2018-12-17T05:10:40.182Z,99673.69
2018-12-17T05:11:11.391Z,99672.40
2018-12-17T05:11:42.505Z,99674.97
2018-12-17T05:12:13.654Z,99672.84
2018-12-17T05:12:44.781Z,99674.56
2018-12-17T05:13:15.888Z,99679.72
2018-12-17T05:13:46.999Z,99674.53
2018-12-17T05:14:18.107Z,99673.69
2018-12-17T05:14:49.221Z,99678.02
2018-12-17T05:15:20.397Z,99680.59
2018-12-17T05:15:51.502Z,99681.03
2018-12-17T05:16:22.613Z,99681.87
2018-12-17T05:16:53.740Z,99675.89
2018-12-17T05:17:24.865Z,99677.62
2018-12-17T05:17:55.998Z,99684.89
2018-12-17T05:18:27.116Z,99675.00
2018-12-17T05:18:58.256Z,99683.53
2018-12-17T05:19:29.364Z,99671.52
2018-12-17T05:20:00.520Z,99683.13
2018-12-17T05:20:31.687Z,99680.56
2018-12-17T05:21:02.827Z,99678.39
2018-12-17T05:21:33.963Z,99679.67
2018-12-17T05:22:05.095Z,99682.69
2018-12-17T05:22:36.224Z,99652.94
2018-12-17T05:23:07.376Z,99683.89
2018-12-17T05:23:38.590Z,99687.30
2018-12-17T05:24:09.715Z,99674.84
2018-12-17T05:24:40.877Z,99683.40
2018-12-17T05:25:12.022Z,99685.53
2018-12-17T05:25:43.202Z,99676.92
2018-12-17T05:26:14.346Z,99682.08
2018-12-17T05:26:45.483Z,99684.64
2018-12-17T05:27:16.637Z,99687.66
2018-12-17T05:27:48.785Z,99683.80
2018-12-17T05:28:19.903Z,99683.36
2018-12-17T05:28:51.676Z,99675.69
2018-12-17T05:29:22.854Z,99682.96
2018-12-17T05:29:53.968Z,99682.96
2018-12-17T05:30:25.117Z,99687.70
2018-12-17T05:30:56.277Z,99685.09
2018-12-17T05:31:27.400Z,99676.48
2018-12-17T05:31:58.531Z,99686.38
2018-12-17T05:32:31.359Z,99686.38
2018-12-17T05:33:02.707Z,99686.38
2018-12-17T05:33:33.846Z,99681.23
2018-12-17T05:34:04.971Z,99657.89
2018-12-17T05:34:36.139Z,99682.86
2018-12-17T05:35:07.284Z,99685.83
2018-12-17T05:35:38.413Z,99689.69
2018-12-17T05:36:09.543Z,99684.11
2018-12-17T05:36:40.662Z,99686.32
2018-12-17T05:37:11.789Z,99683.80
2018-12-17T05:37:44.735Z,99683.84
2018-12-17T05:38:15.965Z,99688.15
2018-12-17T05:38:47.115Z,99682.56
2018-12-17T05:39:18.235Z,99683.84
2018-12-17T05:39:49.402Z,99678.27
2018-12-17T05:40:20.535Z,99681.72
2018-12-17T05:40:51.661Z,99684.73
2018-12-17T05:41:22.844Z,99673.60
2018-12-17T05:41:54.280Z,99678.30
2018-12-17T05:42:26.049Z,99676.58
2018-12-17T05:42:57.181Z,99685.13
2018-12-17T05:43:28.326Z,99679.59
2018-12-17T05:43:59.466Z,99684.78
2018-12-17T05:44:30.595Z,99670.19
2018-12-17T05:45:01.772Z,99678.34
2018-12-17T05:45:32.948Z,99675.33
2018-12-17T05:46:04.061Z,99677.91
2018-12-17T05:46:35.189Z,99671.91
2018-12-17T05:47:06.311Z,99668.50
2018-12-17T05:47:37.437Z,99672.31
2018-12-17T05:48:08.551Z,99673.59
2018-12-17T05:48:39.678Z,99674.84
2018-12-17T05:49:10.813Z,99679.59
2018-12-17T05:49:41.935Z,99669.73
2018-12-17T05:50:13.107Z,99677.90
2018-12-17T05:50:44.278Z,99676.22
2018-12-17T05:51:15.399Z,99671.11
2018-12-17T05:51:46.524Z,99683.53
2018-12-17T05:52:17.725Z,99680.92
2018-12-17T05:52:48.837Z,99680.08
2018-12-17T05:53:19.948Z,99685.22
2018-12-17T05:53:51.064Z,99673.64
2018-12-17T05:54:22.177Z,99685.62
2018-12-17T05:54:53.284Z,99680.92
2018-12-17T05:55:24.393Z,99678.83
2018-12-17T05:55:55.509Z,99683.57
2018-12-17T05:56:26.619Z,99672.03
2018-12-17T05:56:57.761Z,99679.75
2018-12-17T05:57:28.863Z,99681.84
2018-12-17T05:57:59.973Z,99686.51
2018-12-17T05:58:31.090Z,99686.46
2018-12-17T05:59:02.382Z,99686.45
2018-12-17T05:59:33.488Z,99679.98
2018-12-17T06:00:04.595Z,99686.42
2018-12-17T06:00:35.710Z,99690.31
2018-12-17T06:01:06.822Z,99686.46
2018-12-17T06:01:37.949Z,99683.89
2018-12-17T06:02:09.093Z,99689.04
2018-12-17T06:02:40.211Z,99679.63
2018-12-17T06:03:11.317Z,99682.69
2018-12-17T06:03:42.434Z,99686.11
2018-12-17T06:04:13.536Z,99686.14
2018-12-17T06:04:44.644Z,99683.13
2018-12-17T06:05:15.870Z,99688.31
2018-12-17T06:05:47.037Z,99683.13